Time;durP1;ratioP1;P1;durP2;ratioP2;P2;SDS_P1;SDS_P2;PMS_P1;PMS_P2;Temp;Humidity;BMP_temperature;BMP_pressure;BME280_temperature;BME280_humidity;BME280_pressure;Samples;Min_cycle;Max_cycle;Signal;HPM_P1;HPM_P2
2021/05/15 00:01:48;;;;;;;14.30;10.48;;;384.10;2329.60;;;;;;5012995;28;20497;-78
2021/05/15 00:04:14;;;;;;;12.50;10.00;;;384.10;2329.60;;;;;;5012575;28;20022;-76
2021/05/15 00:06:40;;;;;;;16.83;11.00;;;359.30;2329.60;;;;;;4994955;28;20038;-75
2021/05/15 00:09:06;;;;;;;12.23;7.45;;;384.00;2329.60;;;;;;5012346;28;20066;-75
2021/05/15 00:11:32;;;;;;;13.02;8.30;;;359.30;2329.60;;;;;;5012414;28;20097;-76
2021/05/15 00:13:58;;;;;;;21.80;8.55;;;359.30;2329.60;;;;;;5012615;28;20065;-77
2021/05/15 00:16:24;;;;;;;18.73;6.72;;;384.00;2329.60;;;;;;5012069;28;20056;-76
2021/05/15 00:18:50;;;;;;;11.32;6.22;;;359.30;2329.60;;;;;;5012615;28;20064;-78
2021/05/15 00:21:16;;;;;;;11.50;6.55;;;359.10;2329.60;;;;;;5012213;28;20021;-76
2021/05/15 00:23:42;;;;;;;14.48;6.63;;;359.10;2329.60;;;;;;4994106;28;20121;-76
2021/05/15 00:26:07;;;;;;;13.82;7.88;;;359.10;2329.60;;;;;;5012039;28;20026;-78
2021/05/15 00:28:33;;;;;;;21.48;9.85;;;359.30;2329.60;;;;;;5012459;28;20037;-76
2021/05/15 00:30:59;;;;;;;12.77;8.00;;;384.00;2329.60;;;;;;5012207;28;20021;-76
2021/05/15 00:33:25;;;;;;;11.05;6.38;;;359.30;2329.60;;;;;;5011955;28;20041;-77
2021/05/15 00:35:51;;;;;;;19.70;9.48;;;359.30;2329.60;;;;;;5012181;28;20129;-75
2021/05/15 00:38:17;;;;;;;22.15;9.73;;;384.00;2329.60;;;;;;4994408;28;20079;-76
2021/05/15 00:40:43;;;;;;;21.70;9.95;;;384.20;2329.60;;;;;;5012696;28;20357;-75
2021/05/15 00:43:09;;;;;;;14.55;9.32;;;384.20;2329.60;;;;;;5011762;28;20389;-76
2021/05/15 00:45:37;;;;;;;16.70;8.38;;;384.30;2329.60;;;;;;4994006;28;20022;-77
2021/05/15 00:48:03;;;;;;;14.18;6.53;;;384.30;2329.60;;;;;;5011420;28;20033;-75
2021/05/15 00:50:30;;;;;;;8.38;5.88;;;359.30;2329.60;;;;;;5011961;28;20032;-78
2021/05/15 00:52:57;;;;;;;9.10;6.05;;;384.00;2329.60;;;;;;5011241;28;20088;-76
2021/05/15 00:55:25;;;;;;;11.13;5.63;;;384.00;2329.60;;;;;;5011719;28;20437;-75
2021/05/15 00:57:54;;;;;;;9.48;6.57;;;384.00;2329.60;;;;;;5012007;28;20038;-77
2021/05/15 01:00:21;;;;;;;8.93;6.22;;;384.00;2329.60;;;;;;5011447;28;20056;-76
2021/05/15 01:02:47;;;;;;;11.50;5.65;;;384.00;2329.60;;;;;;5011859;28;20104;-78
2021/05/15 01:05:13;;;;;;;9.90;6.75;;;384.00;2329.60;;;;;;4993064;28;20129;-77
2021/05/15 01:07:44;;;;;;;15.60;6.50;;;359.30;2329.60;;;;;;5012045;28;20026;-77
2021/05/15 01:10:10;;;;;;;10.10;5.90;;;359.30;2329.60;;;;;;5011269;28;20163;-77
2021/05/15 01:12:55;;;;;;;14.55;6.57;;;384.00;2329.60;;;;;;5011552;28;20065;-76
2021/05/15 01:15:24;;;;;;;15.85;8.60;;;384.10;2329.60;;;;;;5011755;28;20158;-75
2021/05/15 01:17:58;;;;;;;13.85;7.72;;;384.00;2329.60;;;;;;5011248;28;20026;-76
2021/05/15 01:20:27;;;;;;;12.80;7.43;;;384.00;2329.60;;;;;;5011605;28;20350;-75
2021/05/15 01:22:55;;;;;;;10.10;7.20;;;359.30;2329.60;;;;;;5011245;28;20084;-77
2021/05/15 01:25:21;;;;;;;10.77;6.32;;;359.30;2329.60;;;;;;5011545;28;20029;-76
2021/05/15 01:27:47;;;;;;;10.50;6.53;;;384.00;2329.60;;;;;;4994202;28;20485;-77
2021/05/15 01:30:14;;;;;;;10.93;6.60;;;384.00;2329.60;;;;;;5011372;28;20051;-77
2021/05/15 01:32:46;;;;;;;12.88;7.10;;;359.30;2329.60;;;;;;5011609;28;20030;-77
2021/05/15 01:35:14;;;;;;;11.55;7.13;;;359.30;2329.60;;;;;;5011155;28;20095;-78
2021/05/15 01:37:40;;;;;;;9.20;6.53;;;384.00;2329.60;;;;;;5011589;28;20044;-75
2021/05/15 01:40:08;;;;;;;13.75;6.75;;;359.10;2329.60;;;;;;5010384;28;20018;-76
2021/05/15 01:42:34;;;;;;;11.65;7.35;;;359.20;2329.60;;;;;;5011530;28;20512;-76
2021/05/15 01:45:00;;;;;;;10.57;7.07;;;359.30;2329.60;;;;;;5011078;28;20053;-77
2021/05/15 01:47:26;;;;;;;12.63;6.75;;;359.30;2329.60;;;;;;5011376;28;20101;-78
2021/05/15 01:49:52;;;;;;;9.05;6.28;;;359.20;2329.60;;;;;;5011660;28;20018;-75
2021/05/15 01:52:18;;;;;;;14.80;7.03;;;359.20;2329.60;;;;;;4993636;28;20037;-75
2021/05/15 01:54:44;;;;;;;14.85;7.57;;;359.30;2329.60;;;;;;5011443;28;20053;-75
2021/05/15 01:57:10;;;;;;;11.77;7.18;;;359.30;2329.60;;;;;;5010975;28;20044;-75
2021/05/15 01:59:37;;;;;;;14.27;7.05;;;359.30;2329.60;;;;;;4997532;28;20059;-77
2021/05/15 02:02:03;;;;;;;15.20;8.98;;;359.10;2329.60;;;;;;5015231;28;20358;-78
2021/05/15 02:04:29;;;;;;;13.20;8.43;;;359.00;2329.60;;;;;;5014836;28;20497;-75
2021/05/15 02:06:57;;;;;;;13.88;7.22;;;359.10;2329.60;;;;;;5014738;28;20030;-78
2021/05/15 02:09:23;;;;;;;15.30;6.80;;;359.10;2329.60;;;;;;5014482;28;20104;-75
2021/05/15 02:11:49;;;;;;;11.13;7.88;;;359.10;2329.60;;;;;;5015251;28;20173;-75
2021/05/15 02:14:15;;;;;;;25.00;9.32;;;359.20;2329.60;;;;;;5000773;28;20037;-77
2021/05/15 02:16:40;;;;;;;12.98;9.13;;;359.30;2329.60;;;;;;4997298;28;20032;-75
2021/05/15 02:19:06;;;;;;;14.60;7.35;;;359.30;2329.60;;;;;;5014534;28;20386;-75
2021/05/15 02:21:32;;;;;;;11.63;7.70;;;359.30;2329.60;;;;;;5014592;28;20022;-76
2021/05/15 02:23:58;;;;;;;13.43;8.35;;;359.10;2329.60;;;;;;5002928;28;20022;-76
2021/05/15 02:26:24;;;;;;;12.10;8.90;;;358.80;2329.60;;;;;;5008494;28;20492;-77
2021/05/15 02:28:49;;;;;;;10.43;7.75;;;358.70;2329.60;;;;;;5004248;28;20057;-76
2021/05/15 02:31:15;;;;;;;13.27;8.32;;;358.50;2329.60;;;;;;5014741;28;20060;-75
2021/05/15 02:33:41;;;;;;;14.32;8.55;;;333.70;2329.60;;;;;;5014086;28;20061;-75
2021/05/15 02:36:07;;;;;;;11.82;8.05;;;333.40;2329.60;;;;;;5014404;28;20478;-75
2021/05/15 02:38:33;;;;;;;13.27;7.43;;;333.60;2329.60;;;;;;4996623;28;20030;-77
2021/05/15 02:40:59;;;;;;;12.45;7.15;;;358.40;2329.60;;;;;;5013752;28;20026;-77
2021/05/15 02:43:24;;;;;;;14.90;9.00;;;358.40;2329.60;;;;;;5014072;28;20052;-75
2021/05/15 02:45:50;;;;;;;11.82;8.02;;;333.50;2329.60;;;;;;5013858;28;20034;-75
2021/05/15 02:48:16;;;;;;;21.67;9.00;;;333.50;2329.60;;;;;;5014289;28;20072;-75
2021/05/15 02:50:52;;;;;;;12.70;7.93;;;333.70;2329.60;;;;;;5013859;28;20488;-75
2021/05/15 02:53:18;;;;;;;13.73;9.85;;;333.50;2329.60;;;;;;5014138;28;20040;-75
2021/05/15 02:55:44;;;;;;;12.68;8.82;;;333.40;2329.60;;;;;;5013790;28;20022;-75
2021/05/15 02:58:11;;;;;;;11.25;8.38;;;333.50;2329.60;;;;;;5004957;28;20114;-75
2021/05/15 03:00:37;;;;;;;11.98;8.55;;;333.70;2329.60;;;;;;5009517;28;20026;-75
2021/05/15 03:03:03;;;;;;;10.43;7.53;;;333.60;2329.60;;;;;;5013682;28;20147;-75
2021/05/15 03:05:30;;;;;;;12.57;8.48;;;333.50;2329.60;;;;;;5014006;28;20064;-77
2021/05/15 03:07:56;;;;;;;14.65;9.38;;;333.60;2329.60;;;;;;5013448;28;20407;-77
2021/05/15 03:10:24;;;;;;;15.68;9.45;;;333.70;2329.60;;;;;;5001723;28;20041;-78
2021/05/15 03:12:57;;;;;;;17.02;9.95;;;358.40;2329.60;;;;;;5011639;28;20034;-77
2021/05/15 03:15:24;;;;;;;15.85;10.10;;;333.70;2329.60;;;;;;5013509;28;20465;-77
2021/05/15 03:17:52;;;;;;;19.60;10.65;;;358.40;2329.60;;;;;;5013350;28;20032;-77
2021/05/15 03:20:20;;;;;;;13.80;10.90;;;358.50;2329.60;;;;;;5013537;28;20025;-77
2021/05/15 03:22:46;;;;;;;14.35;11.30;;;358.40;2329.60;;;;;;5013477;28;20026;-77
2021/05/15 03:25:13;;;;;;;16.33;12.52;;;333.70;2329.60;;;;;;5013047;28;20018;-76
2021/05/15 03:27:39;;;;;;;15.07;11.68;;;333.60;2329.60;;;;;;5013409;28;20367;-78
2021/05/15 03:30:07;;;;;;;19.38;11.82;;;333.60;2329.60;;;;;;4995611;28;20037;-75
2021/05/15 03:32:33;;;;;;;17.30;11.60;;;333.70;2329.60;;;;;;5013234;28;20022;-75
2021/05/15 03:34:59;;;;;;;16.83;12.70;;;358.40;2329.60;;;;;;5013132;28;20127;-76
2021/05/15 03:37:25;;;;;;;18.42;12.35;;;358.50;2329.60;;;;;;5013241;28;20493;-75
2021/05/15 03:39:51;;;;;;;16.48;12.38;;;358.50;2329.60;;;;;;4998822;28;20030;-76
2021/05/15 03:42:17;;;;;;;20.20;14.63;;;358.50;2329.60;;;;;;4995451;28;20045;-76
2021/05/15 03:44:42;;;;;;;21.92;15.27;;;333.70;2329.60;;;;;;4994463;28;20076;-77
2021/05/15 03:47:08;;;;;;;18.23;13.55;;;333.70;2329.60;;;;;;4994920;28;20482;-77
2021/05/15 03:49:34;;;;;;;18.65;13.95;;;333.70;2329.60;;;;;;5013112;28;20022;-76
2021/05/15 03:51:59;;;;;;;14.88;12.25;;;333.70;2329.60;;;;;;5012548;28;20030;-76
2021/05/15 03:54:26;;;;;;;18.85;14.45;;;358.40;2329.60;;;;;;5012915;28;20458;-76
2021/05/15 03:56:52;;;;;;;18.50;15.52;;;358.50;2329.60;;;;;;5012882;28;20022;-76
2021/05/15 03:59:17;;;;;;;27.98;18.30;;;358.50;2329.60;;;;;;5012602;28;20033;-75
2021/05/15 04:01:43;;;;;;;31.40;18.23;;;333.70;2329.60;;;;;;5012564;28;20025;-76
2021/05/15 04:04:09;;;;;;;30.23;17.45;;;333.60;2329.60;;;;;;5012692;28;20113;-76
2021/05/15 04:06:35;;;;;;;23.45;17.95;;;333.50;2329.60;;;;;;5012456;28;20100;-76
2021/05/15 04:09:00;;;;;;;27.17;18.48;;;333.50;2329.60;;;;;;5012503;28;20037;-75
2021/05/15 04:11:34;;;;;;;24.45;17.17;;;333.50;2329.60;;;;;;5012131;28;20056;-76
2021/05/15 04:15:03;;;;;;;24.65;17.52;;;333.60;2329.60;;;;;;5012317;28;20103;-77
2021/05/15 04:19:33;;;;;;;20.50;15.40;;;333.70;2329.60;;;;;;5012044;28;20102;-76
2021/05/15 04:21:58;;;;;;;18.95;14.95;;;358.50;2329.60;;;;;;4994147;28;20423;-76
2021/05/15 04:24:25;;;;;;;19.00;14.75;;;333.70;2329.60;;;;;;5012328;28;20022;-75
2021/05/15 04:26:59;;;;;;;20.60;14.55;;;333.50;2329.60;;;;;;5012085;28;20363;-74
2021/05/15 04:29:25;;;;;;;17.15;14.75;;;333.40;2329.60;;;;;;5012325;28;20382;-74
2021/05/15 04:31:56;;;;;;;16.55;14.05;;;333.60;2329.60;;;;;;5012066;28;20032;-76
2021/05/15 04:34:23;;;;;;;27.83;15.75;;;333.70;2329.60;;;;;;4994365;28;20036;-75
2021/05/15 04:36:49;;;;;;;14.70;12.55;;;333.70;2329.60;;;;;;5011993;28;20518;-75
2021/05/15 04:39:15;;;;;;;34.38;12.75;;;358.40;2329.60;;;;;;5012061;28;20037;-75
2021/05/15 04:41:41;;;;;;;24.38;10.95;;;358.40;2329.60;;;;;;5008287;28;20029;-76
2021/05/15 04:44:07;;;;;;;71.30;12.60;;;358.50;2329.60;;;;;;4984403;28;20101;-75
2021/05/15 04:46:33;;;;;;;68.90;12.77;;;358.40;2329.60;;;;;;5012338;28;20022;-75
2021/05/15 04:48:59;;;;;;;35.08;10.95;;;333.70;2329.60;;;;;;5011902;28;20018;-75
2021/05/15 04:51:24;;;;;;;13.55;9.85;;;333.70;2329.60;;;;;;5012103;28;20072;-77
2021/05/15 04:53:50;;;;;;;15.75;11.82;;;358.50;2329.60;;;;;;5011642;28;20125;-75
2021/05/15 04:56:16;;;;;;;18.15;11.50;;;358.50;2329.60;;;;;;5012114;28;20128;-75
2021/05/15 04:58:42;;;;;;;16.80;11.35;;;358.60;2329.60;;;;;;5011864;28;20026;-75
2021/05/15 05:01:08;;;;;;;15.27;11.35;;;358.80;2329.60;;;;;;5011567;28;20022;-76
2021/05/15 05:03:34;;;;;;;30.05;12.00;;;358.80;2329.60;;;;;;5011821;28;20037;-76
2021/05/15 05:06:00;;;;;;;18.95;12.13;;;358.80;2329.60;;;;;;5012021;28;20033;-75
2021/05/15 05:08:26;;;;;;;17.20;11.77;;;359.00;2329.60;;;;;;4994297;28;20026;-75
2021/05/15 05:10:53;;;;;;;14.43;11.35;;;359.00;2329.60;;;;;;5011501;28;20022;-76
2021/05/15 05:13:19;;;;;;;22.25;12.88;;;359.00;2329.60;;;;;;5011895;28;20030;-76
2021/05/15 05:15:46;;;;;;;31.45;14.57;;;359.00;2329.60;;;;;;5011413;28;20022;-74
2021/05/15 05:18:11;;;;;;;21.95;14.10;;;359.00;2329.60;;;;;;5011826;28;20392;-75
2021/05/15 05:20:38;;;;;;;21.88;15.13;;;359.10;2329.60;;;;;;4993816;28;20026;-78
2021/05/15 05:23:03;;;;;;;19.35;14.45;;;359.30;2329.60;;;;;;5011542;28;20018;-78
2021/05/15 05:25:29;;;;;;;28.90;18.25;;;359.30;2329.60;;;;;;4993892;28;20025;-76
2021/05/15 05:27:55;;;;;;;21.98;16.38;;;384.00;2329.60;;;;;;5011191;28;20029;-77
2021/05/15 05:30:22;;;;;;;21.60;16.20;;;384.00;2329.60;;;;;;5012035;28;20022;-76
2021/05/15 05:32:49;;;;;;;19.40;16.65;;;384.00;2329.60;;;;;;5014001;28;20026;-76
2021/05/15 05:35:16;;;;;;;24.10;20.83;;;384.10;2329.60;;;;;;4997150;28;20030;-75
2021/05/15 05:37:43;;;;;;;21.30;18.38;;;384.10;2329.60;;;;;;5014399;28;20048;-76
2021/05/15 05:40:11;;;;;;;18.73;16.73;;;384.30;2329.60;;;;;;5014758;28;20088;-76
2021/05/15 05:42:38;;;;;;;22.58;19.48;;;384.30;2329.60;;;;;;5014591;28;20022;-76
2021/05/15 05:45:06;;;;;;;23.10;19.35;;;384.40;2329.60;;;;;;5014976;28;20018;-76
2021/05/15 05:47:32;;;;;;;21.23;17.75;;;384.40;2329.60;;;;;;5015086;28;20064;-76
2021/05/15 05:49:58;;;;;;;19.27;16.85;;;384.40;2329.60;;;;;;5014753;28;20053;-76
2021/05/15 05:52:23;;;;;;;20.42;16.60;;;384.60;2329.60;;;;;;5014555;28;20381;-78
2021/05/15 05:54:49;;;;;;;17.67;15.65;;;384.80;2329.60;;;;;;5014869;28;20026;-75
2021/05/15 05:57:15;;;;;;;16.20;12.77;;;384.80;2329.60;;;;;;5014639;28;20470;-76
2021/05/15 05:59:41;;;;;;;18.20;14.10;;;384.90;2329.60;;;;;;5014822;28;20367;-75
2021/05/15 06:02:06;;;;;;;18.95;11.02;;;409.60;2355.20;;;;;;4989367;28;20076;-76
2021/05/15 06:04:33;;;;;;;19.25;11.23;;;409.60;2355.20;;;;;;5014608;28;20109;-75
2021/05/15 06:06:58;;;;;;;17.30;10.90;;;409.70;2355.20;;;;;;5014588;28;20029;-75
2021/05/15 06:09:24;;;;;;;13.82;10.95;;;409.90;2355.20;;;;;;5014500;28;20374;-75
2021/05/15 06:11:50;;;;;;;13.05;10.95;;;409.90;2355.20;;;;;;5014352;28;20113;-75
2021/05/15 06:14:15;;;;;;;14.70;11.82;;;410.00;2355.20;;;;;;5014110;28;20544;-75
2021/05/15 06:16:41;;;;;;;13.05;11.65;;;410.20;2355.20;;;;;;5014357;28;20030;-76
2021/05/15 06:19:07;;;;;;;14.82;11.45;;;410.30;2355.20;;;;;;5014265;28;20026;-75
2021/05/15 06:21:33;;;;;;;11.93;7.80;;;410.30;2355.20;;;;;;5006187;28;20026;-75
2021/05/15 06:23:59;;;;;;;7.80;6.28;;;410.30;2355.20;;;;;;5014562;28;20377;-77
2021/05/15 06:26:25;;;;;;;11.60;7.47;;;410.50;2355.20;;;;;;4996547;28;20025;-75
2021/05/15 06:28:51;;;;;;;11.48;7.13;;;435.20;2355.20;;;;;;5014336;28;20030;-75
2021/05/15 06:31:16;;;;;;;10.68;7.75;;;435.30;2355.20;;;;;;4996824;28;20427;-77
2021/05/15 06:33:42;;;;;;;10.40;7.43;;;435.50;2355.20;;;;;;5014299;28;20497;-75
2021/05/15 06:36:08;;;;;;;13.00;8.05;;;435.50;2355.20;;;;;;5014006;28;20037;-78
2021/05/15 06:38:34;;;;;;;21.00;9.80;;;435.60;2355.20;;;;;;4996276;28;20046;-74
2021/05/15 06:40:59;;;;;;;14.43;8.68;;;435.70;2355.20;;;;;;5013768;28;20014;-75
2021/05/15 06:43:25;;;;;;;10.65;8.48;;;435.90;2355.20;;;;;;5013556;28;20022;-75
2021/05/15 06:45:51;;;;;;;12.70;8.82;;;435.90;2355.20;;;;;;4994694;28;20581;-78
2021/05/15 06:48:16;;;;;;;10.20;7.57;;;436.10;2355.20;;;;;;5006222;28;20018;-77
2021/05/15 06:50:42;;;;;;;13.15;8.73;;;436.10;2329.60;;;;;;5013990;28;20024;-76
2021/05/15 06:53:08;;;;;;;11.68;9.52;;;460.80;2380.80;;;;;;4996002;28;20390;-75
2021/05/15 06:55:34;;;;;;;10.50;8.63;;;460.90;2355.20;;;;;;5013530;28;20030;-75
2021/05/15 06:58:04;;;;;;;10.50;7.95;;;461.10;2355.20;;;;;;5013842;28;20026;-75
2021/05/15 07:00:30;;;;;;;21.25;9.55;;;461.10;2304.00;;;;;;5013908;28;20029;-75
2021/05/15 07:02:56;;;;;;;11.63;8.57;;;461.10;2278.40;;;;;;5013489;28;20113;-75
2021/05/15 07:05:22;;;;;;;10.30;8.65;;;461.20;2278.40;;;;;;5001560;28;20117;-75
2021/05/15 07:07:48;;;;;;;12.15;8.02;;;461.20;2252.80;;;;;;5012264;28;20032;-74
2021/05/15 07:10:14;;;;;;;10.90;7.65;;;461.40;2278.40;;;;;;5013452;28;20028;-75
2021/05/15 07:12:40;;;;;;;11.50;8.15;;;461.60;2252.80;;;;;;5013468;28;20606;-76
2021/05/15 07:15:08;;;;;;;12.23;7.65;;;461.70;2278.40;;;;;;5013661;28;20046;-75
2021/05/15 07:17:35;;;;;;;11.10;6.93;;;486.40;2176.00;;;;;;5013459;28;20026;-74
2021/05/15 07:20:01;;;;;;;11.00;7.10;;;486.40;2150.40;;;;;;5013329;28;20470;-75
2021/05/15 07:22:27;;;;;;;13.52;7.80;;;461.70;2176.00;;;;;;5012566;28;20068;-74
2021/05/15 07:24:55;;;;;;;10.20;7.38;;;486.50;2176.00;;;;;;5012541;28;20032;-75
2021/05/15 07:27:22;;;;;;;11.73;6.78;;;486.60;2176.00;;;;;;5012818;28;20017;-74
2021/05/15 07:29:51;;;;;;;11.48;8.18;;;486.70;2176.00;;;;;;5012943;28;20025;-77
2021/05/15 07:32:17;;;;;;;11.35;7.25;;;486.80;2176.00;;;;;;5012610;28;20037;-77
2021/05/15 07:34:43;;;;;;;10.07;7.30;;;486.80;2176.00;;;;;;5012809;28;20030;-75
2021/05/15 07:37:09;;;;;;;9.63;8.02;;;486.90;2124.80;;;;;;5012235;28;20116;-76
2021/05/15 07:39:36;;;;;;;16.85;7.43;;;487.00;2150.40;;;;;;5011993;28;20024;-75
2021/05/15 07:42:03;;;;;;;12.90;8.13;;;487.10;2124.80;;;;;;5012340;28;20022;-75
2021/05/15 07:44:29;;;;;;;12.02;9.55;;;487.10;2150.40;;;;;;4995600;28;20034;-76
2021/05/15 07:46:55;;;;;;;12.48;9.02;;;487.30;2176.00;;;;;;4995075;28;20474;-75
2021/05/15 07:49:20;;;;;;;9.88;8.88;;;512.00;2150.40;;;;;;5006665;28;20026;-74
2021/05/15 07:51:46;;;;;;;14.52;9.10;;;487.30;2124.80;;;;;;5005344;28;20427;-75
2021/05/15 07:54:12;;;;;;;11.43;7.53;;;487.30;2124.80;;;;;;5012355;28;20038;-75
2021/05/15 07:56:38;;;;;;;10.15;6.75;;;512.10;2073.60;;;;;;5011293;28;20030;-75
2021/05/15 07:59:04;;;;;;;9.40;7.47;;;512.10;2073.60;;;;;;5011833;28;20041;-75
2021/05/15 08:01:30;;;;;;;13.35;10.07;;;512.40;2073.60;;;;;;5012868;28;20037;-74
2021/05/15 08:03:55;;;;;;;13.43;6.20;;;512.40;1996.80;;;;;;5012041;28;20022;-75
2021/05/15 08:06:21;;;;;;;9.98;5.90;;;512.50;2022.40;;;;;;5012606;28;20505;-75
2021/05/15 08:08:47;;;;;;;7.97;5.72;;;512.50;1971.20;;;;;;5012421;28;20030;-75
2021/05/15 08:11:13;;;;;;;12.57;6.45;;;512.50;1920.00;;;;;;5012436;28;20113;-75
2021/05/15 08:13:39;;;;;;;10.05;6.88;;;512.60;1945.60;;;;;;5012153;28;20062;-75
2021/05/15 08:16:05;;;;;;;9.38;5.93;;;512.60;1945.60;;;;;;5012292;28;20018;-76
2021/05/15 08:18:32;;;;;;;8.68;6.35;;;512.80;1971.20;;;;;;5012374;28;20366;-75
2021/05/15 08:20:58;;;;;;;12.55;5.05;;;512.80;1971.20;;;;;;5012319;28;20466;-75
2021/05/15 08:23:23;;;;;;;6.82;4.60;;;512.90;1894.40;;;;;;5011717;28;20036;-74
2021/05/15 08:25:49;;;;;;;6.93;5.43;;;512.90;1868.80;;;;;;5011776;28;20100;-76
2021/05/15 08:28:16;;;;;;;7.43;5.07;;;537.60;1945.60;;;;;;5011814;28;20441;-75
2021/05/15 08:30:43;;;;;;;10.95;5.60;;;537.60;1920.00;;;;;;5011970;28;20010;-75
2021/05/15 08:33:09;;;;;;;5.85;3.92;;;537.70;1920.00;;;;;;5011837;28;20038;-75
2021/05/15 08:35:35;;;;;;;8.30;4.10;;;537.80;1817.60;;;;;;5011757;28;20429;-75
2021/05/15 08:38:03;;;;;;;7.97;4.45;;;537.80;1843.20;;;;;;5011994;28;20494;-76
2021/05/15 08:40:29;;;;;;;7.40;4.85;;;538.00;1945.60;;;;;;5011994;28;20029;-74
2021/05/15 08:42:55;;;;;;;4.97;4.05;;;538.20;1868.80;;;;;;5011811;28;20018;-75
2021/05/15 08:45:24;;;;;;;5.40;3.38;;;538.20;1843.20;;;;;;5011162;28;20528;-75
2021/05/15 08:47:51;;;;;;;10.23;2.90;;;538.20;1766.40;;;;;;5011324;28;20033;-75
2021/05/15 08:50:20;;;;;;;6.10;2.90;;;538.30;1792.00;;;;;;5011606;28;20029;-75
2021/05/15 08:52:48;;;;;;;4.70;3.35;;;538.40;1817.60;;;;;;5011586;28;20091;-76
2021/05/15 08:55:17;;;;;;;11.73;3.60;;;538.30;1817.60;;;;;;5011650;28;20014;-74
2021/05/15 08:57:44;;;;;;;6.85;2.63;;;538.40;1817.60;;;;;;5011058;28;20030;-75
2021/05/15 09:00:13;;;;;;;12.45;3.28;;;538.40;1740.80;;;;;;5011883;28;20022;-75
2021/05/15 09:02:39;;;;;;;21.13;4.25;;;538.50;1740.80;;;;;;5011508;28;20485;-75
2021/05/15 09:05:08;;;;;;;11.32;3.00;;;538.40;1715.20;;;;;;5011303;28;20560;-75
2021/05/15 09:07:34;;;;;;;9.10;3.42;;;563.30;1817.60;;;;;;5016501;28;20437;-75
2021/05/15 09:10:00;;;;;;;4.57;2.08;;;563.30;1715.20;;;;;;5018345;28;20029;-74
2021/05/15 09:12:26;;;;;;;4.57;2.83;;;563.40;1664.00;;;;;;5017925;28;20378;-75
2021/05/15 09:15:06;;;;;;;9.73;2.67;;;563.40;1715.20;;;;;;5017898;28;20056;-75
2021/05/15 09:17:46;;;;;;;3.80;1.83;;;563.60;1715.20;;;;;;5013140;28;20028;-75
2021/05/15 09:20:24;;;;;;;4.88;2.10;;;563.70;1638.40;;;;;;5018109;28;20029;-76
2021/05/15 09:22:50;;;;;;;3.42;1.73;;;563.90;1612.80;;;;;;5017688;28;20022;-75
2021/05/15 09:25:16;;;;;;;3.40;1.90;;;563.80;1638.40;;;;;;5018185;28;20581;-76
2021/05/15 09:27:42;;;;;;;3.35;2.00;;;564.00;1587.20;;;;;;5017523;28;20032;-77
2021/05/15 09:30:09;;;;;;;5.13;2.15;;;564.10;1664.00;;;;;;5018190;28;20018;-77
2021/05/15 09:32:35;;;;;;;3.28;1.48;;;589.00;1612.80;;;;;;4999840;28;20034;-76
2021/05/15 09:35:02;;;;;;;5.13;2.28;;;588.90;1510.40;;;;;;5017085;28;20030;-76
2021/05/15 09:37:35;;;;;;;3.88;1.20;;;589.10;1510.40;;;;;;4998175;28;20046;-75
2021/05/15 09:40:20;;;;;;;9.35;1.65;;;589.10;1459.20;;;;;;5017307;28;20032;-76
2021/05/15 09:42:54;;;;;;;5.32;1.70;;;589.20;1510.40;;;;;;5017836;28;20030;-76
2021/05/15 09:45:32;;;;;;;6.57;1.52;;;589.10;1510.40;;;;;;5017617;28;20172;-76
2021/05/15 09:48:10;;;;;;;3.92;1.40;;;589.60;1536.00;;;;;;5017924;28;20470;-77
2021/05/15 09:50:39;;;;;;;5.03;1.60;;;589.60;1408.00;;;;;;5015886;28;20026;-75
2021/05/15 09:53:14;;;;;;;12.00;2.55;;;589.70;1408.00;;;;;;5016973;28;20492;-81
2021/05/15 09:55:51;;;;;;;4.00;1.67;;;614.40;1459.20;;;;;;4999362;28;20040;-76
2021/05/15 09:58:17;;;;;;;15.18;2.10;;;614.60;1356.80;;;;;;5017439;28;20026;-76
2021/05/15 10:00:47;;;;;;;4.10;1.67;;;614.80;1382.40;;;;;;5017116;28;20022;-76
2021/05/15 10:03:24;;;;;;;10.20;2.10;;;614.80;1459.20;;;;;;4997977;28;20106;-77
2021/05/15 10:06:07;;;;;;;7.80;2.42;;;614.70;1356.80;;;;;;5015135;28;20363;-77
2021/05/15 10:08:35;;;;;;;5.00;2.10;;;614.40;1356.80;;;;;;5008769;28;20156;-75
2021/05/15 10:11:05;;;;;;;3.88;2.05;;;589.70;1433.60;;;;;;5018026;28;20050;-75
2021/05/15 10:13:36;;;;;;;8.52;2.20;;;589.70;1382.40;;;;;;5017375;28;20034;-75
2021/05/15 10:16:03;;;;;;;9.55;1.90;;;614.80;1459.20;;;;;;5017134;28;20025;-75
2021/05/15 10:18:29;;;;;;;4.20;1.63;;;614.40;1561.60;;;;;;5015354;28;20030;-75
2021/05/15 10:20:55;;;;;;;7.72;1.95;;;589.70;1484.80;;;;;;5014583;28;20474;-75
2021/05/15 10:23:39;;;;;;;6.55;2.03;;;589.30;1459.20;;;;;;5014862;28;20100;-75
2021/05/15 10:26:19;;;;;;;4.93;1.65;;;589.30;1484.80;;;;;;5014476;28;20046;-74
2021/05/15 10:29:03;;;;;;;3.17;1.60;;;589.30;1459.20;;;;;;5013897;28;20486;-75
2021/05/15 10:31:41;;;;;;;8.55;1.92;;;589.30;1510.40;;;;;;5014379;28;20030;-74
2021/05/15 10:34:08;;;;;;;5.60;2.17;;;589.50;1433.60;;;;;;5014270;28;20180;-74
2021/05/15 10:36:49;;;;;;;4.55;1.88;;;589.40;1459.20;;;;;;5013938;28;20041;-74
2021/05/15 10:39:29;;;;;;;4.05;1.80;;;589.50;1433.60;;;;;;5013869;28;20030;-74
2021/05/15 10:41:55;;;;;;;5.53;2.15;;;589.40;1459.20;;;;;;5012981;28;20072;-77
2021/05/15 10:44:21;;;;;;;7.88;2.22;;;589.40;1459.20;;;;;;5012727;28;20025;-75
2021/05/15 10:46:52;;;;;;;6.20;1.92;;;589.00;1510.40;;;;;;5012857;28;20026;-75
2021/05/15 10:49:24;;;;;;;4.97;2.20;;;589.20;1433.60;;;;;;5012591;28;20049;-75
2021/05/15 10:51:56;;;;;;;12.30;2.83;;;589.10;1459.20;;;;;;5011950;28;20482;-75
2021/05/15 10:54:35;;;;;;;7.65;2.40;;;589.00;1484.80;;;;;;5010360;28;20030;-75
2021/05/15 10:57:12;;;;;;;13.32;2.70;;;588.80;1484.80;;;;;;5010281;28;20022;-75
2021/05/15 10:59:40;;;;;;;21.20;6.25;;;589.10;1459.20;;;;;;5012191;28;20036;-76
2021/05/15 11:02:11;;;;;;;14.88;4.35;;;589.50;1459.20;;;;;;5012349;28;20030;-75
2021/05/15 11:04:52;;;;;;;11.18;5.53;;;589.40;1433.60;;;;;;5011892;28;20022;-75
2021/05/15 11:07:22;;;;;;;7.07;3.60;;;589.40;1433.60;;;;;;5012376;28;20029;-75
2021/05/15 11:09:56;;;;;;;16.40;3.90;;;589.20;1408.00;;;;;;5012331;28;20018;-76
2021/05/15 11:12:23;;;;;;;34.58;6.50;;;589.10;1356.80;;;;;;4994670;28;20018;-75
2021/05/15 11:14:50;;;;;;;155.10;22.75;;;589.00;1408.00;;;;;;5011623;28;20523;-75
2021/05/15 11:17:29;;;;;;;13.93;3.28;;;589.00;1484.80;;;;;;5013309;28;20030;-75
2021/05/15 11:19:58;;;;;;;5.95;2.30;;;588.90;1459.20;;;;;;5012013;28;20508;-75
2021/05/15 11:22:36;;;;;;;7.00;2.03;;;588.90;1459.20;;;;;;5012043;28;20026;-75
2021/05/15 11:25:15;;;;;;;4.57;2.17;;;589.00;1459.20;;;;;;5011945;28;20076;-75
2021/05/15 11:27:45;;;;;;;6.07;2.13;;;589.00;1459.20;;;;;;5012179;28;20063;-74
2021/05/15 11:30:15;;;;;;;8.90;2.22;;;588.90;1484.80;;;;;;5009877;28;20018;-75
2021/05/15 11:33:12;;;;;;;6.88;1.88;;;589.00;1433.60;;;;;;5012659;28;20026;-74
2021/05/15 11:35:39;;;;;;;9.82;2.42;;;589.20;1433.60;;;;;;5011942;28;20059;-75
2021/05/15 11:38:14;;;;;;;4.65;1.70;;;589.40;1408.00;;;;;;5012024;28;20402;-75
2021/05/15 11:40:41;;;;;;;6.00;1.63;;;589.70;1305.60;;;;;;5012157;28;20032;-75
2021/05/15 11:43:08;;;;;;;6.18;2.30;;;614.60;1305.60;;;;;;5011877;28;20030;-75
2021/05/15 11:45:34;;;;;;;6.45;1.85;;;614.70;1331.20;;;;;;5012011;28;20053;-74
2021/05/15 11:48:19;;;;;;;5.38;2.03;;;615.10;1280.00;;;;;;5011695;28;20018;-76
2021/05/15 11:51:05;;;;;;;7.50;2.45;;;615.10;1305.60;;;;;;5011552;28;20048;-74
2021/05/15 11:53:33;;;;;;;4.10;1.48;;;615.10;1228.80;;;;;;5011438;28;20042;-74
2021/05/15 11:55:59;;;;;;;6.28;1.90;;;614.90;1254.40;;;;;;5011697;28;20037;-74
2021/05/15 11:58:26;;;;;;;6.43;2.30;;;614.70;1228.80;;;;;;5011842;28;20025;-74
2021/05/15 12:00:52;;;;;;;4.18;1.80;;;614.80;1280.00;;;;;;5011631;28;20084;-74
2021/05/15 12:03:25;;;;;;;7.72;1.90;;;615.20;1254.40;;;;;;5011869;28;20032;-74
2021/05/15 12:05:52;;;;;;;3.65;1.75;;;640.00;1203.20;;;;;;5009833;28;20533;-74
2021/05/15 12:08:19;;;;;;;7.38;2.17;;;640.40;1228.80;;;;;;5010955;28;20064;-75
2021/05/15 12:10:47;;;;;;;4.25;2.35;;;640.70;1203.20;;;;;;5011738;28;20022;-75
2021/05/15 12:13:14;;;;;;;6.38;2.05;;;640.70;1177.60;;;;;;5009906;28;20029;-75
2021/05/15 12:15:47;;;;;;;7.15;2.00;;;640.70;1177.60;;;;;;5012599;28;20022;-75